Time;durP1;ratioP1;P1;durP2;ratioP2;P2;SDS_P1;SDS_P2;PMS_P1;PMS_P2;Temp;Humidity;BMP_temperature;BMP_pressure;BME280_temperature;BME280_humidity;BME280_pressure;Samples;Min_cycle;Max_cycle;Signal;HPM_P1;HPM_P2
2022/12/29 00:02:43;;;;;;;60.67;31.73;;;;;;;;;;10434621;28;20025;-78
2022/12/29 00:07:43;;;;;;;44.77;23.70;;;;;;;;;;10424596;28;20271;-74
2022/12/29 00:18:02;;;;;;;36.88;18.63;;;;;;;;;;10447893;28;20361;-75
2022/12/29 00:44:30;;;;;;;37.33;16.90;;;;;;;;;;10456799;28;20136;-79
2022/12/29 00:49:31;;;;;;;37.03;17.85;;;;;;;;;;10455086;28;20033;-75
2022/12/29 00:54:36;;;;;;;34.28;16.85;;;;;;;;;;10442375;28;20053;-77
2022/12/29 00:59:37;;;;;;;48.92;19.55;;;;;;;;;;10430150;28;20022;-78
2022/12/29 01:04:37;;;;;;;39.90;18.33;;;;;;;;;;10477610;23;20060;-81
2022/12/29 01:14:56;;;;;;;37.47;17.88;;;;;;;;;;10496780;28;20021;-78
2022/12/29 01:19:56;;;;;;;39.00;16.85;;;;;;;;;;10478766;28;20449;-74
2022/12/29 01:24:57;;;;;;;34.00;17.65;;;;;;;;;;10478290;28;20149;-78
2022/12/29 01:29:57;;;;;;;40.07;16.83;;;;;;;;;;10438866;28;20104;-80
2022/12/29 01:34:57;;;;;;;46.83;17.70;;;;;;;;;;10436777;28;20536;-78
2022/12/29 01:39:57;;;;;;;40.72;17.65;;;;;;;;;;10454767;28;20367;-80
2022/12/29 01:45:01;;;;;;;38.58;17.23;;;;;;;;;;10437345;28;20063;-79
2022/12/29 01:50:20;;;;;;;37.03;16.90;;;;;;;;;;10469889;28;20651;-80
2022/12/29 01:55:20;;;;;;;38.13;17.40;;;;;;;;;;10436675;28;20113;-78
2022/12/29 02:00:21;;;;;;;38.08;18.17;;;;;;;;;;10413852;28;20372;-79
2022/12/29 02:05:28;;;;;;;40.45;16.95;;;;;;;;;;10429888;28;20080;-76
2022/12/29 02:10:33;;;;;;;40.17;17.98;;;;;;;;;;10429180;28;20060;-79
2022/12/29 02:15:33;;;;;;;46.05;21.77;;;;;;;;;;10432904;28;20047;-78
2022/12/29 02:20:42;;;;;;;47.65;21.35;;;;;;;;;;10472510;28;20398;-79
2022/12/29 02:25:52;;;;;;;45.97;22.48;;;;;;;;;;10476913;28;20447;-74
2022/12/29 02:30:56;;;;;;;49.42;25.77;;;;;;;;;;10475190;28;20031;-77
2022/12/29 02:36:01;;;;;;;55.92;25.40;;;;;;;;;;10470025;28;20198;-78
2022/12/29 02:41:12;;;;;;;54.17;27.70;;;;;;;;;;10470472;28;20020;-79
2022/12/29 02:46:19;;;;;;;48.78;23.92;;;;;;;;;;10463066;28;20021;-79
2022/12/29 02:51:28;;;;;;;47.70;20.08;;;;;;;;;;10427208;28;20029;-75
2022/12/29 02:56:28;;;;;;;47.13;23.80;;;;;;;;;;10463779;28;20024;-77
2022/12/29 03:02:16;;;;;;;51.30;23.67;;;;;;;;;;10450698;28;20617;-75
2022/12/29 03:07:24;;;;;;;49.38;24.50;;;;;;;;;;10445180;28;20045;-82
2022/12/29 03:17:59;;;;;;;57.75;26.10;;;;;;;;;;10473534;28;20570;-74
2022/12/29 03:23:01;;;;;;;41.80;19.23;;;;;;;;;;10411117;28;20055;-78
2022/12/29 03:28:05;;;;;;;46.17;19.77;;;;;;;;;;10426775;28;20067;-78
2022/12/29 03:33:07;;;;;;;35.95;17.98;;;;;;;;;;10445121;28;20100;-80
2022/12/29 03:38:11;;;;;;;50.70;21.52;;;;;;;;;;10467633;28;20042;-75
2022/12/29 03:43:11;;;;;;;43.13;20.77;;;;;;;;;;10484865;28;20021;-81
2022/12/29 03:48:12;;;;;;;39.70;20.25;;;;;;;;;;10474711;28;20409;-79
2022/12/29 03:53:12;;;;;;;35.03;19.15;;;;;;;;;;10457732;28;20028;-78
2022/12/29 03:58:12;;;;;;;38.40;17.90;;;;;;;;;;10460977;28;20108;-78
2022/12/29 04:03:12;;;;;;;47.55;21.60;;;;;;;;;;10425633;28;20021;-79
2022/12/29 04:08:13;;;;;;;41.03;20.38;;;;;;;;;;10437989;28;20072;-78
2022/12/29 04:13:13;;;;;;;47.20;21.65;;;;;;;;;;10484005;28;20016;-74
2022/12/29 04:18:13;;;;;;;49.45;22.38;;;;;;;;;;10452885;28;20090;-78
2022/12/29 04:23:13;;;;;;;46.65;21.98;;;;;;;;;;10399295;28;20399;-74
2022/12/29 04:28:14;;;;;;;46.95;21.60;;;;;;;;;;10441537;28;20035;-77
2022/12/29 04:33:14;;;;;;;54.00;21.95;;;;;;;;;;10453543;28;20033;-78
2022/12/29 04:38:15;;;;;;;39.17;20.67;;;;;;;;;;10458272;28;20116;-77
2022/12/29 04:43:16;;;;;;;48.97;22.40;;;;;;;;;;10432629;28;20120;-78
2022/12/29 04:48:16;;;;;;;50.42;21.95;;;;;;;;;;10472836;28;20029;-78
2022/12/29 04:53:17;;;;;;;52.67;22.27;;;;;;;;;;10437046;28;20036;-77
2022/12/29 04:58:18;;;;;;;48.70;22.27;;;;;;;;;;10465037;28;20067;-79
2022/12/29 05:03:18;;;;;;;45.38;21.80;;;;;;;;;;10409551;28;20124;-79
2022/12/29 05:08:18;;;;;;;43.67;20.98;;;;;;;;;;10402992;28;20037;-78
2022/12/29 05:13:19;;;;;;;45.80;23.02;;;;;;;;;;10434779;28;20115;-77
2022/12/29 05:18:19;;;;;;;44.27;22.30;;;;;;;;;;10410312;28;20029;-77
2022/12/29 05:23:19;;;;;;;50.37;23.70;;;;;;;;;;10465769;28;20021;-73
2022/12/29 05:28:20;;;;;;;46.30;23.15;;;;;;;;;;10441526;28;20031;-79
2022/12/29 05:33:20;;;;;;;50.60;23.53;;;;;;;;;;10444446;28;20055;-77
2022/12/29 05:38:20;;;;;;;45.67;21.87;;;;;;;;;;10442806;28;20028;-77
2022/12/29 05:43:21;;;;;;;53.63;24.73;;;;;;;;;;10426119;28;20021;-78
2022/12/29 05:48:21;;;;;;;60.03;22.43;;;;;;;;;;10447061;28;20054;-78
2022/12/29 05:53:21;;;;;;;54.35;23.35;;;;;;;;;;10451430;28;20699;-79
2022/12/29 05:58:21;;;;;;;46.17;21.63;;;;;;;;;;10425142;28;20521;-79
2022/12/29 06:03:22;;;;;;;48.53;21.80;;;;;;;;;;10434921;28;20093;-78
2022/12/29 06:08:22;;;;;;;44.28;20.35;;;;;;;;;;10427169;28;20064;-73
2022/12/29 06:13:24;;;;;;;49.37;22.03;;;;;;;;;;10434247;28;20024;-79
2022/12/29 06:18:24;;;;;;;56.50;24.52;;;;;;;;;;10445303;28;20486;-78
2022/12/29 06:23:24;;;;;;;54.17;24.00;;;;;;;;;;10460536;28;20017;-79
2022/12/29 06:28:25;;;;;;;52.20;25.50;;;;;;;;;;10437074;28;20020;-77
2022/12/29 06:33:25;;;;;;;59.25;26.67;;;;;;;;;;10441582;28;20510;-77
2022/12/29 06:38:26;;;;;;;62.75;30.52;;;;;;;;;;10462498;28;20546;-77
2022/12/29 06:43:26;;;;;;;51.30;27.00;;;;;;;;;;10430197;28;20009;-78
2022/12/29 06:48:26;;;;;;;54.83;26.60;;;;;;;;;;10447186;28;20103;-79
2022/12/29 06:53:27;;;;;;;58.55;27.00;;;;;;;;;;10468476;28;20263;-78
2022/12/29 06:58:27;;;;;;;52.40;29.48;;;;;;;;;;10428033;28;20047;-79
2022/12/29 07:03:27;;;;;;;60.70;29.88;;;;;;;;;;10440028;28;20403;-80
2022/12/29 07:08:28;;;;;;;60.88;29.90;;;;;;;;;;10417175;28;20029;-79
2022/12/29 07:13:28;;;;;;;67.35;29.58;;;;;;;;;;10452998;28;20025;-77
2022/12/29 07:18:28;;;;;;;56.93;28.23;;;;;;;;;;10441570;28;20064;-79
2022/12/29 07:23:29;;;;;;;61.17;28.40;;;;;;;;;;10443093;28;20063;-79
2022/12/29 07:28:29;;;;;;;55.60;28.95;;;;;;;;;;10422124;28;20067;-78
2022/12/29 07:33:30;;;;;;;79.07;29.70;;;;;;;;;;10437351;28;20025;-79
2022/12/29 07:38:30;;;;;;;59.78;28.65;;;;;;;;;;10439869;28;20075;-79
2022/12/29 07:43:30;;;;;;;62.60;29.25;;;;;;;;;;10437533;28;20108;-80
2022/12/29 07:48:30;;;;;;;61.50;29.42;;;;;;;;;;10442799;28;20021;-79
2022/12/29 07:53:31;;;;;;;69.50;32.77;;;;;;;;;;10440861;28;20016;-79
2022/12/29 07:58:31;;;;;;;54.85;30.02;;;;;;;;;;10413465;28;20032;-79
2022/12/29 08:03:31;;;;;;;70.00;29.27;;;;;;;;;;10449579;28;20025;-78
2022/12/29 08:08:31;;;;;;;61.72;29.70;;;;;;;;;;10424842;28;20025;-79
2022/12/29 08:13:32;;;;;;;62.33;30.63;;;;;;;;;;10441581;28;20491;-82
2022/12/29 08:18:32;;;;;;;54.85;25.90;;;;;;;;;;10442761;28;20482;-81
2022/12/29 08:23:33;;;;;;;55.33;27.38;;;;;;;;;;10462375;28;20036;-81
2022/12/29 08:28:33;;;;;;;52.72;27.35;;;;;;;;;;10462226;28;20657;-80
2022/12/29 08:33:33;;;;;;;60.75;27.45;;;;;;;;;;10456747;28;20041;-80
2022/12/29 08:38:33;;;;;;;50.77;26.30;;;;;;;;;;10440566;28;20021;-78
2022/12/29 08:43:34;;;;;;;54.67;26.83;;;;;;;;;;10414135;28;20426;-78
2022/12/29 08:48:34;;;;;;;45.17;20.23;;;;;;;;;;10430899;28;20471;-77
2022/12/29 08:53:34;;;;;;;43.30;22.52;;;;;;;;;;10468557;28;20029;-76
2022/12/29 08:58:38;;;;;;;42.57;19.53;;;;;;;;;;10425729;28;20029;-81
2022/12/29 09:03:39;;;;;;;48.47;22.70;;;;;;;;;;10467739;28;20041;-82
2022/12/29 09:08:39;;;;;;;49.13;23.17;;;;;;;;;;10436712;28;20048;-78
2022/12/29 09:13:40;;;;;;;55.30;22.77;;;;;;;;;;10440417;28;20031;-78
2022/12/29 09:18:41;;;;;;;46.63;23.85;;;;;;;;;;10453308;28;20063;-83
2022/12/29 09:23:41;;;;;;;47.65;24.75;;;;;;;;;;10429748;28;20021;-77
2022/12/29 09:28:42;;;;;;;56.00;25.40;;;;;;;;;;10484555;28;20246;-80
2022/12/29 09:33:43;;;;;;;47.45;24.77;;;;;;;;;;10432861;28;20033;-78
2022/12/29 09:38:43;;;;;;;64.00;27.55;;;;;;;;;;10464220;28;20501;-79
2022/12/29 09:43:53;;;;;;;49.10;25.05;;;;;;;;;;10446712;28;20021;-78
2022/12/29 09:49:02;;;;;;;49.03;25.10;;;;;;;;;;10453820;28;20028;-78
2022/12/29 09:54:21;;;;;;;46.15;23.42;;;;;;;;;;10433677;28;20513;-77
2022/12/29 09:59:25;;;;;;;42.35;21.13;;;;;;;;;;10431038;28;20114;-78
2022/12/29 10:04:26;;;;;;;41.95;20.02;;;;;;;;;;10465403;28;20198;-79
2022/12/29 10:09:27;;;;;;;35.30;19.20;;;;;;;;;;10465454;28;20234;-79
2022/12/29 10:14:53;;;;;;;43.60;20.45;;;;;;;;;;10459896;28;20033;-80
2022/12/29 10:20:02;;;;;;;35.13;17.48;;;;;;;;;;10424863;28;20104;-79
2022/12/29 10:25:03;;;;;;;31.67;17.13;;;;;;;;;;10437082;28;20012;-79
2022/12/29 10:30:04;;;;;;;31.15;16.65;;;;;;;;;;10428559;28;20036;-79
2022/12/29 10:35:30;;;;;;;35.08;18.15;;;;;;;;;;10456399;28;20031;-76
2022/12/29 10:40:43;;;;;;;38.97;18.67;;;;;;;;;;10426503;28;20045;-82
2022/12/29 10:45:44;;;;;;;32.33;17.75;;;;;;;;;;10443396;28;20028;-78
2022/12/29 10:50:44;;;;;;;38.90;18.35;;;;;;;;;;10418090;28;20037;-78
2022/12/29 10:55:44;;;;;;;29.13;16.58;;;;;;;;;;10433914;28;20024;-77
2022/12/29 11:00:49;;;;;;;35.30;19.00;;;;;;;;;;10435200;28;20017;-80
2022/12/29 11:05:52;;;;;;;36.42;19.42;;;;;;;;;;10445763;28;20065;-80
2022/12/29 11:11:03;;;;;;;41.25;20.15;;;;;;;;;;10446584;28;20099;-78
2022/12/29 11:16:04;;;;;;;47.15;21.52;;;;;;;;;;10441313;28;20578;-80
2022/12/29 11:21:06;;;;;;;43.30;18.57;;;;;;;;;;10425451;28;20021;-79
2022/12/29 11:26:22;;;;;;;36.28;18.27;;;;;;;;;;10463244;28;20270;-78
2022/12/29 11:31:23;;;;;;;36.60;18.27;;;;;;;;;;10407110;28;20044;-77
2022/12/29 11:36:24;;;;;;;40.13;19.98;;;;;;;;;;10433552;28;20518;-80
2022/12/29 11:41:28;;;;;;;42.50;20.27;;;;;;;;;;10436370;28;20009;-78
2022/12/29 11:46:33;;;;;;;34.95;18.83;;;;;;;;;;10445204;28;20031;-76
2022/12/29 11:51:45;;;;;;;32.00;18.95;;;;;;;;;;10460678;28;20040;-80
2022/12/29 11:56:45;;;;;;;42.70;20.52;;;;;;;;;;10468659;28;20032;-81
2022/12/29 12:01:46;;;;;;;39.90;19.77;;;;;;;;;;10438421;28;20009;-80
2022/12/29 12:07:03;;;;;;;41.25;20.73;;;;;;;;;;10455487;28;20075;-77
2022/12/29 12:12:03;;;;;;;40.92;21.95;;;;;;;;;;10446639;28;20028;-78
2022/12/29 12:17:24;;;;;;;48.75;24.08;;;;;;;;;;10417241;28;20017;-79
2022/12/29 12:22:24;;;;;;;41.50;22.80;;;;;;;;;;10450020;28;20044;-79
2022/12/29 12:27:28;;;;;;;52.47;27.83;;;;;;;;;;10479119;28;20493;-75
2022/12/29 12:32:29;;;;;;;54.25;25.60;;;;;;;;;;10439645;28;20622;-80
2022/12/29 12:37:53;;;;;;;58.47;24.88;;;;;;;;;;10430171;28;20025;-79
2022/12/29 12:43:02;;;;;;;50.45;24.10;;;;;;;;;;10417791;28;20019;-78
2022/12/29 12:48:09;;;;;;;49.72;22.23;;;;;;;;;;10443124;28;20034;-78
2022/12/29 12:53:22;;;;;;;47.40;23.98;;;;;;;;;;10439057;28;20529;-79
2022/12/29 12:58:41;;;;;;;44.78;23.80;;;;;;;;;;10443103;28;20025;-78
2022/12/29 13:03:59;;;;;;;49.65;24.98;;;;;;;;;;10459850;28;20118;-79
2022/12/29 13:09:06;;;;;;;53.00;24.73;;;;;;;;;;10466202;28;20073;-79
2022/12/29 13:14:06;;;;;;;57.83;25.95;;;;;;;;;;10461838;28;20056;-76
2022/12/29 13:19:26;;;;;;;61.75;24.17;;;;;;;;;;10422396;28;20105;-78
2022/12/29 13:24:38;;;;;;;55.58;24.73;;;;;;;;;;10437040;28;20622;-81
2022/12/29 13:29:40;;;;;;;58.67;26.23;;;;;;;;;;10473781;28;20012;-78
2022/12/29 13:34:45;;;;;;;54.75;24.27;;;;;;;;;;10451283;28;20025;-79
2022/12/29 13:39:49;;;;;;;55.30;24.45;;;;;;;;;;10443185;28;20017;-78
2022/12/29 13:44:53;;;;;;;67.35;26.50;;;;;;;;;;10446614;28;20024;-80
2022/12/29 13:49:56;;;;;;;57.78;27.35;;;;;;;;;;10425541;28;20090;-80
2022/12/29 13:55:16;;;;;;;62.97;26.38;;;;;;;;;;10427002;28;20082;-78
2022/12/29 14:00:20;;;;;;;52.20;27.05;;;;;;;;;;10430026;28;20017;-78
2022/12/29 14:05:20;;;;;;;54.92;25.83;;;;;;;;;;10430204;28;20045;-80
2022/12/29 14:10:34;;;;;;;51.42;24.85;;;;;;;;;;10423405;28;20368;-78
2022/12/29 14:15:40;;;;;;;48.50;23.77;;;;;;;;;;10430757;28;20108;-77
2022/12/29 14:21:07;;;;;;;55.15;23.90;;;;;;;;;;10420551;28;20025;-79
2022/12/29 14:26:10;;;;;;;52.42;24.90;;;;;;;;;;10399761;28;20032;-80
2022/12/29 14:31:14;;;;;;;50.72;24.40;;;;;;;;;;10414014;28;20082;-79
2022/12/29 14:36:33;;;;;;;51.83;23.73;;;;;;;;;;10424354;28;20035;-78
2022/12/29 14:41:36;;;;;;;60.05;25.23;;;;;;;;;;10410977;28;20466;-76
2022/12/29 14:46:42;;;;;;;52.65;24.75;;;;;;;;;;10409579;28;20033;-77
2022/12/29 14:51:43;;;;;;;56.30;24.60;;;;;;;;;;10432705;28;20044;-80
2022/12/29 14:56:43;;;;;;;51.27;23.73;;;;;;;;;;10415140;28;20025;-79
2022/12/29 15:01:48;;;;;;;74.45;25.38;;;;;;;;;;10430812;28;20358;-78
2022/12/29 15:06:49;;;;;;;64.28;26.95;;;;;;;;;;10426115;28;20145;-77
2022/12/29 15:11:52;;;;;;;56.63;25.50;;;;;;;;;;10406316;28;20112;-81
2022/12/29 15:16:52;;;;;;;64.07;25.60;;;;;;;;;;10404767;28;20024;-78
2022/12/29 15:21:53;;;;;;;65.22;27.10;;;;;;;;;;10428831;28;20404;-73
2022/12/29 15:26:55;;;;;;;64.95;29.98;;;;;;;;;;10419753;28;20022;-77
2022/12/29 15:31:56;;;;;;;77.32;32.90;;;;;;;;;;10446134;28;20402;-78
2022/12/29 15:36:56;;;;;;;63.63;30.45;;;;;;;;;;10414542;28;20025;-77
2022/12/29 15:41:59;;;;;;;67.43;28.50;;;;;;;;;;10420061;28;20403;-77
2022/12/29 15:47:04;;;;;;;68.43;29.83;;;;;;;;;;10403872;28;20078;-76
2022/12/29 15:52:08;;;;;;;67.60;29.27;;;;;;;;;;10416817;28;20145;-77
2022/12/29 15:57:26;;;;;;;65.82;29.08;;;;;;;;;;10432297;28;20017;-76
2022/12/29 16:02:27;;;;;;;70.47;27.45;;;;;;;;;;10427833;28;20112;-74
2022/12/29 16:07:31;;;;;;;63.47;25.15;;;;;;;;;;10425420;28;20396;-81
2022/12/29 16:12:34;;;;;;;68.97;26.20;;;;;;;;;;10425926;28;20025;-77
2022/12/29 16:17:41;;;;;;;55.78;25.95;;;;;;;;;;10418715;28;20055;-75
2022/12/29 16:22:45;;;;;;;63.80;27.33;;;;;;;;;;10428607;28;20100;-79
2022/12/29 16:27:46;;;;;;;63.30;25.83;;;;;;;;;;10421124;28;20059;-80
2022/12/29 16:32:47;;;;;;;70.65;28.50;;;;;;;;;;10423231;28;20093;-79
2022/12/29 16:37:48;;;;;;;70.78;26.95;;;;;;;;;;10480519;23;20076;-76
2022/12/29 16:42:49;;;;;;;61.58;26.77;;;;;;;;;;10463234;28;20551;-80
2022/12/29 16:48:04;;;;;;;70.63;26.85;;;;;;;;;;10462703;28;20040;-77
2022/12/29 16:53:06;;;;;;;54.97;25.10;;;;;;;;;;10477991;28;20104;-76
2022/12/29 16:58:16;;;;;;;56.65;26.52;;;;;;;;;;10459719;28;20405;-79
2022/12/29 17:03:16;;;;;;;60.65;27.83;;;;;;;;;;10454541;28;20032;-79
2022/12/29 17:08:22;;;;;;;57.30;26.83;;;;;;;;;;10463272;28;20032;-77
2022/12/29 17:13:22;;;;;;;58.78;27.50;;;;;;;;;;10455976;28;20032;-75
2022/12/29 17:18:23;;;;;;;61.40;24.17;;;;;;;;;;10460888;28;20031;-78
2022/12/29 17:23:23;;;;;;;57.22;26.38;;;;;;;;;;10468315;28;20028;-78
2022/12/29 17:28:28;;;;;;;49.00;22.40;;;;;;;;;;10467750;28;20484;-79
2022/12/29 17:33:34;;;;;;;57.13;22.23;;;;;;;;;;10485350;28;20115;-78
2022/12/29 17:38:34;;;;;;;57.17;26.80;;;;;;;;;;10468208;28;20052;-75
2022/12/29 17:43:35;;;;;;;69.13;27.35;;;;;;;;;;10470851;28;20020;-74
2022/12/29 17:48:35;;;;;;;63.40;25.88;;;;;;;;;;10448929;28;20153;-73
2022/12/29 17:53:35;;;;;;;61.77;25.90;;;;;;;;;;10443784;28;20021;-73
2022/12/29 17:58:35;;;;;;;62.97;26.60;;;;;;;;;;10435860;28;20112;-72
2022/12/29 18:03:37;;;;;;;65.50;26.35;;;;;;;;;;10452518;28;20241;-73
2022/12/29 18:08:38;;;;;;;48.45;21.75;;;;;;;;;;10467800;28;20107;-79
2022/12/29 18:13:38;;;;;;;43.13;19.33;;;;;;;;;;10461080;28;20089;-75
2022/12/29 18:18:38;;;;;;;44.28;18.65;;;;;;;;;;10456166;28;20483;-79
2022/12/29 18:23:38;;;;;;;43.25;18.00;;;;;;;;;;10454581;28;20422;-77
2022/12/29 18:28:39;;;;;;;39.88;17.48;;;;;;;;;;10456574;28;20525;-76
2022/12/29 18:33:39;;;;;;;34.53;16.63;;;;;;;;;;10455160;28;20532;-79
2022/12/29 18:38:41;;;;;;;40.15;17.75;;;;;;;;;;10456758;28;20048;-77
2022/12/29 18:43:42;;;;;;;46.40;17.33;;;;;;;;;;10455233;28;20055;-77
2022/12/29 18:48:42;;;;;;;37.42;15.65;;;;;;;;;;10453613;28;20409;-77
2022/12/29 18:53:43;;;;;;;34.33;16.60;;;;;;;;;;10482947;28;20031;-78
2022/12/29 18:58:43;;;;;;;34.55;16.15;;;;;;;;;;10454616;28;20107;-78
2022/12/29 19:03:44;;;;;;;34.13;15.97;;;;;;;;;;10460006;28;20384;-78
2022/12/29 19:08:44;;;;;;;44.33;20.00;;;;;;;;;;10484774;28;20452;-78
2022/12/29 19:13:44;;;;;;;37.00;17.83;;;;;;;;;;10465604;28;20785;-78
2022/12/29 19:18:45;;;;;;;33.67;15.77;;;;;;;;;;10469562;28;20028;-78
2022/12/29 19:23:45;;;;;;;38.70;18.17;;;;;;;;;;10462624;28;20055;-78
2022/12/29 19:28:45;;;;;;;40.60;17.27;;;;;;;;;;10472772;28;20025;-76
2022/12/29 19:33:45;;;;;;;52.92;22.27;;;;;;;;;;10466381;28;20082;-78
2022/12/29 19:38:46;;;;;;;42.25;21.10;;;;;;;;;;10455608;28;20094;-79
2022/12/29 19:43:46;;;;;;;48.00;21.67;;;;;;;;;;10482554;28;20020;-79
2022/12/29 19:48:46;;;;;;;71.47;24.67;;;;;;;;;;10471454;28;20537;-78
2022/12/29 19:53:48;;;;;;;64.57;27.60;;;;;;;;;;10459395;28;20137;-74
2022/12/29 19:58:49;;;;;;;62.70;26.75;;;;;;;;;;10470818;28;20111;-79
2022/12/29 20:03:50;;;;;;;64.03;29.05;;;;;;;;;;10478394;28;20387;-77
2022/12/29 20:08:50;;;;;;;58.35;26.27;;;;;;;;;;10464206;28;20032;-77
2022/12/29 20:13:50;;;;;;;62.72;27.58;;;;;;;;;;10466820;28;20028;-78
2022/12/29 20:18:53;;;;;;;61.38;28.05;;;;;;;;;;10463732;28;20039;-77
2022/12/29 20:23:53;;;;;;;60.42;28.95;;;;;;;;;;10462205;28;20470;-79
2022/12/29 20:28:56;;;;;;;65.53;29.80;;;;;;;;;;10448331;28;20028;-77
2022/12/29 20:33:56;;;;;;;66.95;30.67;;;;;;;;;;10479113;28;20016;-77
2022/12/29 20:38:58;;;;;;;60.97;27.92;;;;;;;;;;10460617;28;20045;-77
2022/12/29 20:44:03;;;;;;;74.90;32.45;;;;;;;;;;10457039;28;20027;-78
2022/12/29 20:49:04;;;;;;;70.70;32.10;;;;;;;;;;10476007;28;20025;-79
2022/12/29 20:54:04;;;;;;;65.30;29.95;;;;;;;;;;10460620;28;20490;-74
2022/12/29 20:59:05;;;;;;;66.43;29.35;;;;;;;;;;10489806;28;20035;-78
2022/12/29 21:04:05;;;;;;;68.10;31.63;;;;;;;;;;10470653;28;20117;-78
2022/12/29 21:09:05;;;;;;;68.95;32.47;;;;;;;;;;10471096;28;20020;-78
2022/12/29 21:14:06;;;;;;;72.68;34.03;;;;;;;;;;10489545;28;20021;-79
2022/12/29 21:19:06;;;;;;;78.80;34.80;;;;;;;;;;10487830;28;20016;-76
2022/12/29 21:24:06;;;;;;;82.03;34.22;;;;;;;;;;10466640;28;20020;-78
2022/12/29 21:29:07;;;;;;;75.63;33.53;;;;;;;;;;10468118;28;20103;-78
2022/12/29 21:34:08;;;;;;;85.07;35.43;;;;;;;;;;10465357;28;20595;-79
2022/12/29 21:39:08;;;;;;;102.47;42.80;;;;;;;;;;10462948;28;20326;-77
2022/12/29 21:49:27;;;;;;;98.70;41.63;;;;;;;;;;10485345;28;20024;-80
2022/12/29 22:15:46;;;;;;;87.47;38.42;;;;;;;;;;10479507;28;20452;-77
2022/12/29 22:20:47;;;;;;;76.70;35.55;;;;;;;;;;10466147;28;20017;-76
2022/12/29 22:25:48;;;;;;;77.50;32.55;;;;;;;;;;10466956;28;20017;-79
2022/12/29 22:30:49;;;;;;;44.22;24.55;;;;;;;;;;10463599;28;20024;-78
2022/12/29 22:35:49;;;;;;;73.07;31.42;;;;;;;;;;10467726;28;20616;-76
2022/12/29 22:40:49;;;;;;;44.20;18.20;;;;;;;;;;10466268;28;20028;-76
2022/12/29 22:45:49;;;;;;;42.10;19.48;;;;;;;;;;10467162;28;20513;-78
2022/12/29 22:50:53;;;;;;;35.13;17.65;;;;;;;;;;10485017;28;20494;-78
2022/12/29 22:56:07;;;;;;;38.75;16.42;;;;;;;;;;10463766;28;20032;-77
2022/12/29 23:01:07;;;;;;;34.25;15.13;;;;;;;;;;10479986;28;20051;-79
2022/12/29 23:06:11;;;;;;;43.60;21.33;;;;;;;;;;10484311;28;20808;-72
2022/12/29 23:11:11;;;;;;;44.65;20.33;;;;;;;;;;10465707;28;20031;-79
2022/12/29 23:16:13;;;;;;;42.95;19.02;;;;;;;;;;10465843;28;20020;-80
2022/12/29 23:21:14;;;;;;;41.05;20.30;;;;;;;;;;10466880;28;20418;-80
2022/12/29 23:26:14;;;;;;;52.97;23.25;;;;;;;;;;10473002;28;20027;-77
2022/12/29 23:31:15;;;;;;;42.45;23.05;;;;;;;;;;10467459;28;20508;-79
2022/12/29 23:36:16;;;;;;;49.85;23.15;;;;;;;;;;10461697;28;20050;-75
2022/12/29 23:41:16;;;;;;;50.78;22.73;;;;;;;;;;10464037;28;20026;-77
2022/12/29 23:46:18;;;;;;;53.13;22.10;;;;;;;;;;10465917;28;20021;-79
2022/12/29 23:51:19;;;;;;;57.08;24.15;;;;;;;;;;10464160;28;20039;-79
2022/12/29 23:56:20;;;;;;;47.17;22.40;;;;;;;;;;10467222;28;20024;-77
